sensor_id;sensor_type;location;lat;lon;timestamp;pressure;altitude;pressure_sealevel;temperature;humidity
13719;BME280;6931;51.100;17.068;2022-08-21T00:02:01;99771.38;;;20.84;100.00
13719;BME280;6931;51.100;17.068;2022-08-21T00:04:27;99768.06;;;20.76;100.00
13719;BME280;6931;51.100;17.068;2022-08-21T00:06:56;99768.50;;;20.51;100.00
13719;BME280;6931;51.100;17.068;2022-08-21T00:09:22;99758.91;;;20.48;100.00
13719;BME280;6931;51.100;17.068;2022-08-21T00:11:49;99754.38;;;20.42;100.00
13719;BME280;6931;51.100;17.068;2022-08-21T00:14:16;99757.19;;;20.42;100.00
13719;BME280;6931;51.100;17.068;2022-08-21T00:16:43;99758.97;;;20.30;100.00
13719;BME280;6931;51.100;17.068;2022-08-21T00:19:09;99758.81;;;20.34;100.00
13719;BME280;6931;51.100;17.068;2022-08-21T00:21:36;99744.34;;;20.32;100.00
13719;BME280;6931;51.100;17.068;2022-08-21T00:24:03;99755.97;;;20.25;100.00
13719;BME280;6931;51.100;17.068;2022-08-21T00:26:30;99753.31;;;20.21;100.00
13719;BME280;6931;51.100;17.068;2022-08-21T00:28:57;99736.97;;;19.98;100.00
13719;BME280;6931;51.100;17.068;2022-08-21T00:31:24;99742.19;;;20.00;100.00
13719;BME280;6931;51.100;17.068;2022-08-21T00:33:51;99739.97;;;19.95;100.00
13719;BME280;6931;51.100;17.068;2022-08-21T00:36:24;99744.06;;;20.03;100.00
13719;BME280;6931;51.100;17.068;2022-08-21T00:38:51;99747.63;;;20.12;100.00
13719;BME280;6931;51.100;17.068;2022-08-21T00:41:17;99744.03;;;20.30;100.00
13719;BME280;6931;51.100;17.068;2022-08-21T00:44:05;99751.28;;;20.22;100.00
13719;BME280;6931;51.100;17.068;2022-08-21T00:46:32;99749.84;;;20.17;100.00
13719;BME280;6931;51.100;17.068;2022-08-21T00:48:59;99743.72;;;20.10;100.00
13719;BME280;6931;51.100;17.068;2022-08-21T00:52:13;99752.06;;;20.22;100.00
13719;BME280;6931;51.100;17.068;2022-08-21T00:54:22;99740.13;;;20.00;100.00
13719;BME280;6931;51.100;17.068;2022-08-21T00:56:56;99744.69;;;20.07;100.00
13719;BME280;6931;51.100;17.068;2022-08-21T00:59:28;99745.63;;;20.22;100.00
13719;BME280;6931;51.100;17.068;2022-08-21T01:01:56;99750.00;;;20.23;100.00
13719;BME280;6931;51.100;17.068;2022-08-21T01:04:26;99752.84;;;20.23;100.00
13719;BME280;6931;51.100;17.068;2022-08-21T01:06:53;99752.19;;;20.37;100.00
13719;BME280;6931;51.100;17.068;2022-08-21T01:09:21;99756.63;;;20.29;100.00
13719;BME280;6931;51.100;17.068;2022-08-21T01:11:48;99749.81;;;20.44;100.00
13719;BME280;6931;51.100;17.068;2022-08-21T01:14:15;99735.69;;;20.35;100.00
13719;BME280;6931;51.100;17.068;2022-08-21T01:16:45;99712.16;;;20.11;100.00
13719;BME280;6931;51.100;17.068;2022-08-21T01:19:13;99717.97;;;19.90;100.00
13719;BME280;6931;51.100;17.068;2022-08-21T01:21:41;99717.06;;;19.84;100.00
13719;BME280;6931;51.100;17.068;2022-08-21T01:24:10;99717.97;;;19.90;100.00
13719;BME280;6931;51.100;17.068;2022-08-21T01:26:36;99706.81;;;19.95;100.00
13719;BME280;6931;51.100;17.068;2022-08-21T01:31:52;99696.63;;;20.07;100.00
13719;BME280;6931;51.100;17.068;2022-08-21T01:34:18;99693.91;;;20.12;100.00
13719;BME280;6931;51.100;17.068;2022-08-21T01:36:45;99682.50;;;19.89;100.00
13719;BME280;6931;51.100;17.068;2022-08-21T01:39:14;99675.28;;;19.88;100.00
13719;BME280;6931;51.100;17.068;2022-08-21T01:41:41;99665.53;;;19.89;100.00
13719;BME280;6931;51.100;17.068;2022-08-21T01:44:07;99666.81;;;19.88;100.00
13719;BME280;6931;51.100;17.068;2022-08-21T01:46:34;99668.81;;;19.96;100.00
13719;BME280;6931;51.100;17.068;2022-08-21T01:49:03;99665.19;;;20.05;100.00
13719;BME280;6931;51.100;17.068;2022-08-21T01:51:29;99673.38;;;20.03;100.00
13719;BME280;6931;51.100;17.068;2022-08-21T01:53:56;99679.19;;;19.90;100.00
13719;BME280;6931;51.100;17.068;2022-08-21T01:56:24;99670.09;;;19.86;100.00
13719;BME280;6931;51.100;17.068;2022-08-21T01:58:52;99673.09;;;19.74;100.00
13719;BME280;6931;51.100;17.068;2022-08-21T02:01:18;99682.34;;;19.74;100.00
13719;BME280;6931;51.100;17.068;2022-08-21T02:03:45;99695.09;;;19.61;100.00
13719;BME280;6931;51.100;17.068;2022-08-21T02:06:14;99687.41;;;19.70;100.00
13719;BME280;6931;51.100;17.068;2022-08-21T02:08:45;99688.19;;;19.53;100.00
13719;BME280;6931;51.100;17.068;2022-08-21T02:11:12;99683.13;;;19.29;100.00
13719;BME280;6931;51.100;17.068;2022-08-21T02:13:39;99683.81;;;19.43;100.00
13719;BME280;6931;51.100;17.068;2022-08-21T02:16:05;99680.97;;;19.52;100.00
13719;BME280;6931;51.100;17.068;2022-08-21T02:18:34;99676.41;;;19.45;100.00
13719;BME280;6931;51.100;17.068;2022-08-21T02:21:01;99673.28;;;19.34;100.00
13719;BME280;6931;51.100;17.068;2022-08-21T02:23:28;99665.91;;;19.36;100.00
13719;BME280;6931;51.100;17.068;2022-08-21T02:25:57;99663.06;;;19.36;100.00
13719;BME280;6931;51.100;17.068;2022-08-21T02:28:25;99647.41;;;19.35;100.00
13719;BME280;6931;51.100;17.068;2022-08-21T02:30:53;99658.50;;;19.21;100.00
13719;BME280;6931;51.100;17.068;2022-08-21T02:33:21;99658.34;;;19.24;100.00
13719;BME280;6931;51.100;17.068;2022-08-21T02:35:50;99652.22;;;19.26;100.00
13719;BME280;6931;51.100;17.068;2022-08-21T02:38:23;99656.13;;;19.19;100.00
13719;BME280;6931;51.100;17.068;2022-08-21T02:40:50;99647.19;;;19.12;100.00
13719;BME280;6931;51.100;17.068;2022-08-21T02:43:18;99651.41;;;19.07;100.00
13719;BME280;6931;51.100;17.068;2022-08-21T02:45:46;99648.75;;;19.13;100.00
13719;BME280;6931;51.100;17.068;2022-08-21T02:48:17;99653.00;;;19.26;100.00
13719;BME280;6931;51.100;17.068;2022-08-21T02:50:46;99654.56;;;19.27;100.00
13719;BME280;6931;51.100;17.068;2022-08-21T02:53:14;99658.97;;;19.28;100.00
13719;BME280;6931;51.100;17.068;2022-08-21T02:55:47;99661.00;;;19.28;100.00
13719;BME280;6931;51.100;17.068;2022-08-21T02:58:17;99660.16;;;18.91;100.00
13719;BME280;6931;51.100;17.068;2022-08-21T03:00:44;99655.00;;;18.90;100.00
13719;BME280;6931;51.100;17.068;2022-08-21T03:03:11;99653.94;;;19.05;100.00
13719;BME280;6931;51.100;17.068;2022-08-21T03:05:38;99659.41;;;18.91;100.00
13719;BME280;6931;51.100;17.068;2022-08-21T03:08:07;99660.16;;;18.91;100.00
13719;BME280;6931;51.100;17.068;2022-08-21T03:10:42;99664.09;;;18.85;100.00
13719;BME280;6931;51.100;17.068;2022-08-21T03:13:10;99669.09;;;18.72;100.00
13719;BME280;6931;51.100;17.068;2022-08-21T03:15:38;99668.00;;;18.78;100.00
13719;BME280;6931;51.100;17.068;2022-08-21T03:18:05;99666.28;;;18.90;100.00
13719;BME280;6931;51.100;17.068;2022-08-21T03:20:34;99668.31;;;18.80;100.00
13719;BME280;6931;51.100;17.068;2022-08-21T03:23:02;99657.00;;;18.71;100.00
13719;BME280;6931;51.100;17.068;2022-08-21T03:25:39;99668.00;;;18.78;100.00
13719;BME280;6931;51.100;17.068;2022-08-21T03:28:10;99666.47;;;18.95;100.00
13719;BME280;6931;51.100;17.068;2022-08-21T03:30:43;99654.34;;;18.77;100.00
13719;BME280;6931;51.100;17.068;2022-08-21T03:33:10;99664.53;;;18.74;100.00
13719;BME280;6931;51.100;17.068;2022-08-21T03:35:45;99671.44;;;18.82;100.00
13719;BME280;6931;51.100;17.068;2022-08-21T03:38:12;99678.97;;;18.76;100.00
13719;BME280;6931;51.100;17.068;2022-08-21T03:40:41;99674.09;;;18.86;100.00
13719;BME280;6931;51.100;17.068;2022-08-21T03:43:08;99677.56;;;18.81;100.00
13719;BME280;6931;51.100;17.068;2022-08-21T03:45:36;99686.16;;;18.77;100.00
13719;BME280;6931;51.100;17.068;2022-08-21T03:48:05;99678.84;;;18.89;100.00
13719;BME280;6931;51.100;17.068;2022-08-21T03:50:36;99676.63;;;18.93;100.00
13719;BME280;6931;51.100;17.068;2022-08-21T03:53:07;99688.22;;;18.86;100.00
13719;BME280;6931;51.100;17.068;2022-08-21T03:55:45;99683.50;;;18.74;100.00
13719;BME280;6931;51.100;17.068;2022-08-21T03:58:15;99689.13;;;18.74;100.00
13719;BME280;6931;51.100;17.068;2022-08-21T04:00:50;99689.13;;;18.74;100.00
13719;BME280;6931;51.100;17.068;2022-08-21T04:03:18;99684.53;;;18.58;100.00
13719;BME280;6931;51.100;17.068;2022-08-21T04:05:46;99683.31;;;18.59;100.00
13719;BME280;6931;51.100;17.068;2022-08-21T04:08:14;99696.78;;;18.64;100.00
13719;BME280;6931;51.100;17.068;2022-08-21T04:10:41;99689.88;;;18.56;100.00
13719;BME280;6931;51.100;17.068;2022-08-21T04:13:09;99698.00;;;18.54;100.00
13719;BME280;6931;51.100;17.068;2022-08-21T04:15:36;99678.47;;;18.38;100.00
13719;BME280;6931;51.100;17.068;2022-08-21T04:18:04;99690.47;;;18.51;100.00
13719;BME280;6931;51.100;17.068;2022-08-21T04:20:32;99694.41;;;18.54;100.00
13719;BME280;6931;51.100;17.068;2022-08-21T04:22:59;99692.72;;;18.65;100.00
13719;BME280;6931;51.100;17.068;2022-08-21T04:25:26;99689.28;;;18.61;100.00
13719;BME280;6931;51.100;17.068;2022-08-21T04:27:53;99688.19;;;18.68;100.00
13719;BME280;6931;51.100;17.068;2022-08-21T04:30:20;99689.38;;;18.49;100.00
13719;BME280;6931;51.100;17.068;2022-08-21T04:32:55;99682.38;;;18.62;100.00
13719;BME280;6931;51.100;17.068;2022-08-21T04:35:24;99687.81;;;18.57;100.00
13719;BME280;6931;51.100;17.068;2022-08-21T04:37:51;99682.53;;;18.68;100.00
13719;BME280;6931;51.100;17.068;2022-08-21T04:40:19;99705.25;;;18.64;100.00
13719;BME280;6931;51.100;17.068;2022-08-21T04:43:04;99696.28;;;18.57;100.00
13719;BME280;6931;51.100;17.068;2022-08-21T04:45:34;99700.22;;;18.59;100.00
13719;BME280;6931;51.100;17.068;2022-08-21T04:48:03;99711.31;;;18.54;100.00
13719;BME280;6931;51.100;17.068;2022-08-21T04:53:20;99688.56;;;18.48;100.00
13719;BME280;6931;51.100;17.068;2022-08-21T04:55:49;99693.78;;;18.59;100.00
13719;BME280;6931;51.100;17.068;2022-08-21T04:58:20;99697.72;;;18.61;100.00
13719;BME280;6931;51.100;17.068;2022-08-21T05:00:49;99698.63;;;18.49;100.00
13719;BME280;6931;51.100;17.068;2022-08-21T05:03:18;99708.50;;;18.54;100.00
13719;BME280;6931;51.100;17.068;2022-08-21T05:05:45;99721.44;;;18.73;100.00
13719;BME280;6931;51.100;17.068;2022-08-21T05:08:14;99711.84;;;18.70;100.00
13719;BME280;6931;51.100;17.068;2022-08-21T05:10:42;99708.84;;;18.56;100.00
13719;BME280;6931;51.100;17.068;2022-08-21T05:13:11;99707.72;;;18.53;100.00
13719;BME280;6931;51.100;17.068;2022-08-21T05:15:40;99715.09;;;18.51;100.00
13719;BME280;6931;51.100;17.068;2022-08-21T05:18:07;99717.84;;;18.42;100.00
13719;BME280;6931;51.100;17.068;2022-08-21T05:20:34;99716.94;;;18.45;100.00
13719;BME280;6931;51.100;17.068;2022-08-21T05:23:05;99723.09;;;18.52;100.00
13719;BME280;6931;51.100;17.068;2022-08-21T05:25:34;99711.31;;;18.54;100.00
13719;BME280;6931;51.100;17.068;2022-08-21T05:28:01;99723.03;;;18.43;100.00
13719;BME280;6931;51.100;17.068;2022-08-21T05:30:28;99726.19;;;18.23;100.00
13719;BME280;6931;51.100;17.068;2022-08-21T05:32:58;99735.03;;;18.35;100.00
13719;BME280;6931;51.100;17.068;2022-08-21T05:35:27;99746.44;;;18.31;100.00
13719;BME280;6931;51.100;17.068;2022-08-21T05:37:54;99739.25;;;18.30;100.00
13719;BME280;6931;51.100;17.068;2022-08-21T05:40:22;99737.59;;;18.20;100.00
13719;BME280;6931;51.100;17.068;2022-08-21T05:42:53;99750.53;;;18.30;100.00
13719;BME280;6931;51.100;17.068;2022-08-21T05:45:28;99723.47;;;18.11;100.00
13719;BME280;6931;51.100;17.068;2022-08-21T05:48:23;99741.59;;;18.32;100.00
13719;BME280;6931;51.100;17.068;2022-08-21T05:50:51;99739.81;;;18.25;100.00
13719;BME280;6931;51.100;17.068;2022-08-21T05:53:20;99742.94;;;18.18;100.00
13719;BME280;6931;51.100;17.068;2022-08-21T05:55:47;99753.28;;;18.21;100.00
13719;BME280;6931;51.100;17.068;2022-08-21T05:58:16;99753.41;;;18.17;100.00
13719;BME280;6931;51.100;17.068;2022-08-21T06:00:44;99759.19;;;18.14;100.00
13719;BME280;6931;51.100;17.068;2022-08-21T06:03:17;99770.59;;;18.10;100.00
13719;BME280;6931;51.100;17.068;2022-08-21T06:05:45;99755.97;;;18.24;100.00
13719;BME280;6931;51.100;17.068;2022-08-21T06:08:12;99762.38;;;18.25;100.00
13719;BME280;6931;51.100;17.068;2022-08-21T06:10:39;99772.03;;;18.37;100.00
13719;BME280;6931;51.100;17.068;2022-08-21T06:13:06;99765.53;;;18.27;100.00
13719;BME280;6931;51.100;17.068;2022-08-21T06:15:32;99772.03;;;18.15;100.00
13719;BME280;6931;51.100;17.068;2022-08-21T06:17:59;99768.25;;;18.09;100.00
13719;BME280;6931;51.100;17.068;2022-08-21T06:20:26;99767.38;;;18.21;100.00
13719;BME280;6931;51.100;17.068;2022-08-21T06:22:54;99778.59;;;18.12;100.00
13719;BME280;6931;51.100;17.068;2022-08-21T06:25:21;99788.44;;;18.07;100.00
13719;BME280;6931;51.100;17.068;2022-08-21T06:27:47;99788.19;;;18.14;100.00
13719;BME280;6931;51.100;17.068;2022-08-21T06:30:14;99802.50;;;18.29;100.00
13719;BME280;6931;51.100;17.068;2022-08-21T06:32:40;99823.44;;;18.19;100.00
13719;BME280;6931;51.100;17.068;2022-08-21T06:35:07;99817.59;;;18.13;100.00
13719;BME280;6931;51.100;17.068;2022-08-21T06:37:34;99817.94;;;18.15;100.00
13719;BME280;6931;51.100;17.068;2022-08-21T06:40:03;99821.88;;;18.18;100.00
13719;BME280;6931;51.100;17.068;2022-08-21T06:42:30;99820.81;;;18.24;100.00
13719;BME280;6931;51.100;17.068;2022-08-21T06:44:58;99818.94;;;18.21;100.00
13719;BME280;6931;51.100;17.068;2022-08-21T06:47:24;99828.03;;;18.25;100.00
13719;BME280;6931;51.100;17.068;2022-08-21T06:49:51;99833.66;;;18.04;100.00
13719;BME280;6931;51.100;17.068;2022-08-21T06:52:18;99838.22;;;17.89;100.00
13719;BME280;6931;51.100;17.068;2022-08-21T06:54:45;99845.19;;;17.97;100.00
13719;BME280;6931;51.100;17.068;2022-08-21T06:57:11;99838.34;;;17.51;100.00
13719;BME280;6931;51.100;17.068;2022-08-21T06:59:38;99839.03;;;17.17;100.00
13719;BME280;6931;51.100;17.068;2022-08-21T07:02:05;99847.16;;;17.15;100.00
13719;BME280;6931;51.100;17.068;2022-08-21T07:04:31;99855.94;;;17.17;100.00
13719;BME280;6931;51.100;17.068;2022-08-21T07:06:58;99840.72;;;17.15;100.00
13719;BME280;6931;51.100;17.068;2022-08-21T07:09:25;99847.91;;;17.16;100.00
13719;BME280;6931;51.100;17.068;2022-08-21T07:11:53;99849.03;;;17.31;100.00
13719;BME280;6931;51.100;17.068;2022-08-21T07:14:21;99860.28;;;17.44;100.00
13719;BME280;6931;51.100;17.068;2022-08-21T07:16:48;99861.66;;;17.52;100.00
13719;BME280;6931;51.100;17.068;2022-08-21T07:19:15;99856.94;;;17.11;100.00
13719;BME280;6931;51.100;17.068;2022-08-21T07:21:42;99852.56;;;17.23;100.00
13719;BME280;6931;51.100;17.068;2022-08-21T07:24:08;99859.31;;;17.00;100.00
13719;BME280;6931;51.100;17.068;2022-08-21T07:26:38;99866.38;;;17.04;100.00
13719;BME280;6931;51.100;17.068;2022-08-21T07:29:04;99857.84;;;16.83;100.00
13719;BME280;6931;51.100;17.068;2022-08-21T07:31:31;99859.06;;;16.82;100.00
13719;BME280;6931;51.100;17.068;2022-08-21T07:33:58;99857.38;;;16.97;100.00
13719;BME280;6931;51.100;17.068;2022-08-21T07:36:25;99852.31;;;16.92;100.00
13719;BME280;6931;51.100;17.068;2022-08-21T07:38:52;99846.59;;;16.83;100.00
13719;BME280;6931;51.100;17.068;2022-08-21T07:41:22;99838.59;;;17.06;100.00
13719;BME280;6931;51.100;17.068;2022-08-21T07:43:49;99839.94;;;16.77;100.00
13719;BME280;6931;51.100;17.068;2022-08-21T07:46:18;99851.41;;;16.82;100.00
13719;BME280;6931;51.100;17.068;2022-08-21T07:48:46;99862.22;;;16.84;100.00
13719;BME280;6931;51.100;17.068;2022-08-21T07:51:14;99873.84;;;16.98;100.00
13719;BME280;6931;51.100;17.068;2022-08-21T07:53:48;99866.16;;;16.86;100.00
13719;BME280;6931;51.100;17.068;2022-08-21T07:56:15;99876.31;;;16.96;100.00
13719;BME280;6931;51.100;17.068;2022-08-21T07:58:41;99878.31;;;16.96;100.00
13719;BME280;6931;51.100;17.068;2022-08-21T08:01:08;99875.13;;;16.81;100.00
13719;BME280;6931;51.100;17.068;2022-08-21T08:03:35;99859.84;;;16.82;100.00
13719;BME280;6931;51.100;17.068;2022-08-21T08:06:02;99860.28;;;16.68;100.00
13719;BME280;6931;51.100;17.068;2022-08-21T08:08:31;99855.91;;;16.67;100.00
13719;BME280;6931;51.100;17.068;2022-08-21T08:10:58;99859.97;;;16.79;100.00
13719;BME280;6931;51.100;17.068;2022-08-21T08:13:26;99863.00;;;16.84;100.00
13719;BME280;6931;51.100;17.068;2022-08-21T08:15:53;99873.13;;;16.82;100.00
13719;BME280;6931;51.100;17.068;2022-08-21T08:18:19;99874.81;;;16.92;100.00
13719;BME280;6931;51.100;17.068;2022-08-21T08:20:46;99867.84;;;17.09;100.00
13719;BME280;6931;51.100;17.068;2022-08-21T08:23:14;99875.75;;;17.01;100.00
13719;BME280;6931;51.100;17.068;2022-08-21T08:25:41;99877.44;;;16.86;100.00
13719;BME280;6931;51.100;17.068;2022-08-21T08:28:08;99867.50;;;16.94;100.00
13719;BME280;6931;51.100;17.068;2022-08-21T08:30:44;99873.25;;;16.91;100.00
13719;BME280;6931;51.100;17.068;2022-08-21T08:33:11;99867.91;;;16.68;100.00
13719;BME280;6931;51.100;17.068;2022-08-21T08:35:38;99876.13;;;16.62;100.00
13719;BME280;6931;51.100;17.068;2022-08-21T08:38:06;99869.50;;;16.69;100.00
13719;BME280;6931;51.100;17.068;2022-08-21T08:41:33;99869.50;;;16.69;100.00
13719;BME280;6931;51.100;17.068;2022-08-21T08:43:30;99858.72;;;16.92;100.00
13719;BME280;6931;51.100;17.068;2022-08-21T08:46:02;99868.50;;;16.75;100.00
13719;BME280;6931;51.100;17.068;2022-08-21T08:48:38;99870.31;;;16.82;100.00
13719;BME280;6931;51.100;17.068;2022-08-21T08:51:15;99872.13;;;16.88;100.00
13719;BME280;6931;51.100;17.068;2022-08-21T08:53:55;99874.25;;;16.97;100.00
13719;BME280;6931;51.100;17.068;2022-08-21T08:56:28;99877.06;;;16.97;100.00
13719;BME280;6931;51.100;17.068;2022-08-21T08:59:02;99876.75;;;17.07;100.00
13719;BME280;6931;51.100;17.068;2022-08-21T09:01:29;99877.75;;;17.01;100.00
13719;BME280;6931;51.100;17.068;2022-08-21T09:03:59;99879.47;;;16.98;100.00
13719;BME280;6931;51.100;17.068;2022-08-21T09:12:12;99882.94;;;17.02;100.00
13719;BME280;6931;51.100;17.068;2022-08-21T09:20:46;99885.75;;;16.90;100.00
13719;BME280;6931;51.100;17.068;2022-08-21T09:25:58;99887.88;;;17.11;100.00
13719;BME280;6931;51.100;17.068;2022-08-21T09:28:32;99898.13;;;17.30;100.00
13719;BME280;6931;51.100;17.068;2022-08-21T09:31:00;99899.84;;;17.28;100.00
13719;BME280;6931;51.100;17.068;2022-08-21T09:33:29;99895.22;;;17.21;100.00
13719;BME280;6931;51.100;17.068;2022-08-21T09:35:56;99900.81;;;16.83;100.00
13719;BME280;6931;51.100;17.068;2022-08-21T09:38:33;99905.03;;;16.63;100.00
13719;BME280;6931;51.100;17.068;2022-08-21T09:41:05;99907.19;;;16.71;100.00
13719;BME280;6931;51.100;17.068;2022-08-21T09:43:32;99895.53;;;16.85;100.00
13719;BME280;6931;51.100;17.068;2022-08-21T09:48:41;99901.13;;;16.60;100.00
13719;BME280;6931;51.100;17.068;2022-08-21T09:51:13;99910.22;;;16.36;100.00
13719;BME280;6931;51.100;17.068;2022-08-21T09:53:45;99904.94;;;16.38;100.00
13719;BME280;6931;51.100;17.068;2022-08-21T09:59:29;99890.19;;;16.62;100.00
13719;BME280;6931;51.100;17.068;2022-08-21T10:02:30;99894.63;;;16.76;100.00
13719;BME280;6931;51.100;17.068;2022-08-21T10:05:25;99897.75;;;16.65;100.00
13719;BME280;6931;51.100;17.068;2022-08-21T10:07:52;99893.84;;;16.47;100.00
13719;BME280;6931;51.100;17.068;2022-08-21T10:10:20;99900.91;;;16.67;100.00
13719;BME280;6931;51.100;17.068;2022-08-21T10:13:21;99903.69;;;16.55;100.00
13719;BME280;6931;51.100;17.068;2022-08-21T10:21:31;99906.34;;;16.99;100.00
13719;BME280;6931;51.100;17.068;2022-08-21T10:24:23;99913.66;;;16.84;100.00
13719;BME280;6931;51.100;17.068;2022-08-21T10:29:42;99904.63;;;16.77;100.00
13719;BME280;6931;51.100;17.068;2022-08-21T10:43:29;99909.63;;;16.98;100.00
13719;BME280;6931;51.100;17.068;2022-08-21T10:48:51;99900.81;;;16.71;99.24
13719;BME280;6931;51.100;17.068;2022-08-21T10:51:28;99903.94;;;16.73;99.83
13719;BME280;6931;51.100;17.068;2022-08-21T10:56:40;99897.75;;;16.78;99.34
13719;BME280;6931;51.100;17.068;2022-08-21T10:59:25;99897.00;;;16.90;100.00
13719;BME280;6931;51.100;17.068;2022-08-21T11:02:17;99900.25;;;16.88;98.83
13719;BME280;6931;51.100;17.068;2022-08-21T11:04:58;99897.25;;;17.08;100.00
13719;BME280;6931;51.100;17.068;2022-08-21T11:07:35;99897.34;;;17.04;100.00
13719;BME280;6931;51.100;17.068;2022-08-21T11:10:13;99897.38;;;17.30;100.00
13719;BME280;6931;51.100;17.068;2022-08-21T11:12:46;99899.84;;;17.28;100.00
13719;BME280;6931;51.100;17.068;2022-08-21T11:15:26;99905.59;;;17.24;99.73
13719;BME280;6931;51.100;17.068;2022-08-21T11:20:56;99906.25;;;17.03;98.84
13719;BME280;6931;51.100;17.068;2022-08-21T11:23:33;99907.03;;;17.03;97.38
13719;BME280;6931;51.100;17.068;2022-08-21T11:26:26;99909.19;;;17.12;98.98
13719;BME280;6931;51.100;17.068;2022-08-21T11:28:59;99912.31;;;17.27;100.00
13719;BME280;6931;51.100;17.068;2022-08-21T11:41:49;99915.91;;;16.89;94.02
13719;BME280;6931;51.100;17.068;2022-08-21T11:50:15;99911.84;;;16.90;93.32
13719;BME280;6931;51.100;17.068;2022-08-21T11:53:16;99910.59;;;16.79;91.87
13719;BME280;6931;51.100;17.068;2022-08-21T11:56:02;99908.03;;;16.97;93.36
13719;BME280;6931;51.100;17.068;2022-08-21T12:01:09;99913.69;;;17.09;92.02
13719;BME280;6931;51.100;17.068;2022-08-21T12:03:54;99912.44;;;16.98;91.26
13719;BME280;6931;51.100;17.068;2022-08-21T12:06:31;99926.06;;;16.99;90.30
13719;BME280;6931;51.100;17.068;2022-08-21T12:09:51;99916.03;;;16.98;91.31
13719;BME280;6931;51.100;17.068;2022-08-21T12:12:01;99921.31;;;16.96;91.61
13719;BME280;6931;51.100;17.068;2022-08-21T12:14:48;99918.88;;;17.24;93.76
13719;BME280;6931;51.100;17.068;2022-08-21T12:17:23;99912.78;;;17.25;91.64
13719;BME280;6931;51.100;17.068;2022-08-21T12:20:14;99915.38;;;17.45;92.19
13719;BME280;6931;51.100;17.068;2022-08-21T12:22:49;99920.44;;;17.37;90.99
13719;BME280;6931;51.100;17.068;2022-08-21T12:25:19;99905.25;;;17.47;91.55
13719;BME280;6931;51.100;17.068;2022-08-21T12:27:51;99917.84;;;17.43;92.28
13719;BME280;6931;51.100;17.068;2022-08-21T12:32:57;99925.53;;;17.30;90.86
13719;BME280;6931;51.100;17.068;2022-08-21T12:35:31;99915.03;;;17.30;90.04
13719;BME280;6931;51.100;17.068;2022-08-21T12:40:58;99908.28;;;17.65;92.97
13719;BME280;6931;51.100;17.068;2022-08-21T12:43:40;99905.69;;;17.58;93.16
13719;BME280;6931;51.100;17.068;2022-08-21T12:46:15;99911.78;;;17.57;92.76
13719;BME280;6931;51.100;17.068;2022-08-21T12:48:51;99909.88;;;17.54;91.39
13719;BME280;6931;51.100;17.068;2022-08-21T12:51:24;99920.13;;;17.73;92.68
13719;BME280;6931;51.100;17.068;2022-08-21T12:53:55;99910.75;;;17.63;92.61
13719;BME280;6931;51.100;17.068;2022-08-21T12:56:25;99916.94;;;17.46;90.27
13719;BME280;6931;51.100;17.068;2022-08-21T12:59:01;99905.94;;;17.51;91.64
13719;BME280;6931;51.100;17.068;2022-08-21T13:01:38;99914.03;;;17.74;90.80
13719;BME280;6931;51.100;17.068;2022-08-21T13:04:12;99914.03;;;17.62;91.47
13719;BME280;6931;51.100;17.068;2022-08-21T13:06:42;99907.16;;;17.63;91.77
13719;BME280;6931;51.100;17.068;2022-08-21T13:09:12;99893.97;;;17.60;93.88
13719;BME280;6931;51.100;17.068;2022-08-21T13:11:42;99907.94;;;17.51;90.45
13719;BME280;6931;51.100;17.068;2022-08-21T13:16:57;99918.84;;;17.74;90.54
13719;BME280;6931;51.100;17.068;2022-08-21T13:19:25;99913.44;;;17.79;90.37
13719;BME280;6931;51.100;17.068;2022-08-21T13:21:52;99909.19;;;17.75;91.91
13719;BME280;6931;51.100;17.068;2022-08-21T13:24:25;99913.31;;;17.83;91.76
13719;BME280;6931;51.100;17.068;2022-08-21T13:27:29;99909.00;;;17.91;91.13
13719;BME280;6931;51.100;17.068;2022-08-21T13:30:03;99907.91;;;17.88;91.25
13719;BME280;6931;51.100;17.068;2022-08-21T13:32:34;99911.00;;;18.03;91.66
13719;BME280;6931;51.100;17.068;2022-08-21T13:35:21;99904.59;;;18.02;93.21
13719;BME280;6931;51.100;17.068;2022-08-21T13:37:49;99916.16;;;18.17;92.50
13719;BME280;6931;51.100;17.068;2022-08-21T13:40:48;99917.06;;;17.80;90.77
13719;BME280;6931;51.100;17.068;2022-08-21T13:43:21;99910.38;;;17.99;91.59
13719;BME280;6931;51.100;17.068;2022-08-21T13:45:52;99922.38;;;18.12;92.00
13719;BME280;6931;51.100;17.068;2022-08-21T13:48:20;99916.13;;;17.95;91.13
13719;BME280;6931;51.100;17.068;2022-08-21T13:50:48;99910.88;;;18.06;92.25
13719;BME280;6931;51.100;17.068;2022-08-21T13:55:53;99915.69;;;18.18;91.98
13719;BME280;6931;51.100;17.068;2022-08-21T13:58:41;99921.66;;;18.20;92.43
13719;BME280;6931;51.100;17.068;2022-08-21T14:01:19;99910.84;;;18.19;91.69
13719;BME280;6931;51.100;17.068;2022-08-21T14:03:49;99915.09;;;18.23;91.14
13719;BME280;6931;51.100;17.068;2022-08-21T14:06:19;99920.09;;;18.19;91.07
13719;BME280;6931;51.100;17.068;2022-08-21T14:08:51;99919.66;;;18.21;90.95
13719;BME280;6931;51.100;17.068;2022-08-21T14:11:20;99922.97;;;18.07;90.33
13719;BME280;6931;51.100;17.068;2022-08-21T14:16:28;99920.44;;;18.21;89.44
13719;BME280;6931;51.100;17.068;2022-08-21T14:21:41;99922.50;;;18.43;89.58
13719;BME280;6931;51.100;17.068;2022-08-21T14:24:13;99920.81;;;18.45;88.71
13719;BME280;6931;51.100;17.068;2022-08-21T14:27:02;99917.75;;;18.40;89.07
13719;BME280;6931;51.100;17.068;2022-08-21T14:29:34;99916.59;;;18.50;90.35
13719;BME280;6931;51.100;17.068;2022-08-21T14:32:11;99915.16;;;18.45;91.17
13719;BME280;6931;51.100;17.068;2022-08-21T14:34:47;99918.31;;;18.47;89.77
13719;BME280;6931;51.100;17.068;2022-08-21T14:37:13;99920.03;;;18.45;86.68
13719;BME280;6931;51.100;17.068;2022-08-21T14:39:40;99921.75;;;18.42;86.48
13719;BME280;6931;51.100;17.068;2022-08-21T14:42:10;99919.69;;;18.43;86.42